createdAt,value
2022-12-03T00:00:12.590Z,58.63
2022-12-03T00:02:41.311Z,58.89
2022-12-03T00:05:10.060Z,59.17
2022-12-03T00:07:37.575Z,58.81
2022-12-03T00:10:06.096Z,58.92
2022-12-03T00:12:33.631Z,58.48
2022-12-03T00:15:01.071Z,59.02
2022-12-03T00:17:28.852Z,58.74
2022-12-03T00:19:56.356Z,58.54
2022-12-03T00:22:23.914Z,59.03
2022-12-03T00:24:51.931Z,57.98
2022-12-03T00:27:19.601Z,59.07
2022-12-03T00:29:47.355Z,58.17
2022-12-03T00:32:14.818Z,58.95
2022-12-03T00:34:42.359Z,58.59
2022-12-03T00:37:09.839Z,58.41
2022-12-03T00:39:37.351Z,58.85
2022-12-03T00:42:05.219Z,58.26
2022-12-03T00:44:32.776Z,58.68
2022-12-03T00:47:00.314Z,58.82
2022-12-03T00:49:27.934Z,58.57
2022-12-03T00:51:55.403Z,58.26
2022-12-03T00:54:26.994Z,58.64
2022-12-03T00:56:59.107Z,58.48
2022-12-03T00:59:26.634Z,58.77
2022-12-03T01:01:54.232Z,58.76
2022-12-03T01:04:21.989Z,59.23
2022-12-03T01:06:49.509Z,58.62
2022-12-03T01:09:17.090Z,58.38
2022-12-03T01:11:44.645Z,58.28
2022-12-03T01:14:15.443Z,58.63
2022-12-03T01:16:43.888Z,58.36
2022-12-03T01:19:15.936Z,58.86
2022-12-03T01:21:49.066Z,58.14
2022-12-03T01:24:16.938Z,58.53
2022-12-03T01:26:44.404Z,58.74
2022-12-03T01:29:12.039Z,58.40
2022-12-03T01:31:58.295Z,59.24
2022-12-03T01:34:25.875Z,58.96
2022-12-03T01:36:53.371Z,58.75
2022-12-03T01:39:20.935Z,58.86
2022-12-03T01:41:50.692Z,59.00
2022-12-03T01:44:30.311Z,59.13
2022-12-03T01:47:01.878Z,59.28
2022-12-03T01:49:38.042Z,58.68
2022-12-03T01:52:05.978Z,59.35
2022-12-03T01:54:40.699Z,59.45
2022-12-03T01:57:24.014Z,59.06
2022-12-03T01:59:52.931Z,59.45
2022-12-03T02:02:24.460Z,59.49
2022-12-03T02:04:56.134Z,58.85
2022-12-03T02:07:27.785Z,58.86
2022-12-03T02:09:58.792Z,59.09
2022-12-03T02:12:41.594Z,59.05
2022-12-03T02:15:10.398Z,59.17
2022-12-03T02:17:38.998Z,58.75
2022-12-03T02:20:12.822Z,59.10
2022-12-03T02:23:12.119Z,58.74
2022-12-03T02:25:40.116Z,58.89
2022-12-03T02:28:09.795Z,59.42
2022-12-03T02:30:37.793Z,58.99
2022-12-03T02:33:05.475Z,58.86
2022-12-03T02:35:35.183Z,58.77
2022-12-03T02:38:09.066Z,58.97
2022-12-03T02:40:37.089Z,59.11
2022-12-03T02:43:05.486Z,58.47
2022-12-03T02:45:39.690Z,59.00
2022-12-03T02:48:18.064Z,59.24
2022-12-03T02:50:54.841Z,58.91
2022-12-03T02:53:29.066Z,58.72
2022-12-03T02:55:58.402Z,59.10
2022-12-03T02:58:27.339Z,59.06
2022-12-03T03:00:55.869Z,58.86
2022-12-03T03:03:27.931Z,59.33
2022-12-03T03:05:57.020Z,58.96
2022-12-03T03:08:27.065Z,58.90
2022-12-03T03:10:55.906Z,59.08
2022-12-03T03:13:23.603Z,58.98
2022-12-03T03:15:51.061Z,59.17
2022-12-03T03:18:19.050Z,58.91
2022-12-03T03:20:46.536Z,59.01
2022-12-03T03:23:20.619Z,58.93
2022-12-03T03:25:54.564Z,58.98
2022-12-03T03:28:23.160Z,58.78
2022-12-03T03:30:52.531Z,58.57
2022-12-03T03:33:20.156Z,58.74
2022-12-03T03:35:49.229Z,58.96
2022-12-03T03:38:19.515Z,58.72
2022-12-03T03:40:49.542Z,58.58
2022-12-03T03:43:17.287Z,58.20
2022-12-03T03:45:45.263Z,58.19
2022-12-03T03:48:13.966Z,58.64
2022-12-03T03:50:43.616Z,58.56
2022-12-03T03:53:13.050Z,58.36
2022-12-03T03:55:41.074Z,58.15
2022-12-03T03:58:09.050Z,58.78
2022-12-03T04:00:37.090Z,57.92
2022-12-03T04:03:05.465Z,58.49
2022-12-03T04:05:33.328Z,58.47
2022-12-03T04:08:00.885Z,58.37
2022-12-03T04:10:46.899Z,58.17
2022-12-03T04:13:14.506Z,58.42
2022-12-03T04:15:41.984Z,58.51
2022-12-03T04:18:27.897Z,58.60
2022-12-03T04:21:15.457Z,58.19
2022-12-03T04:23:43.050Z,58.32
2022-12-03T04:26:29.288Z,58.39
2022-12-03T04:28:56.934Z,58.29
2022-12-03T04:31:42.912Z,57.93
2022-12-03T04:34:29.652Z,57.82
2022-12-03T04:36:57.231Z,57.98
2022-12-03T04:39:24.719Z,58.13
2022-12-03T04:41:52.197Z,57.76
2022-12-03T04:44:38.124Z,58.55
2022-12-03T04:47:17.146Z,58.63
2022-12-03T04:49:46.919Z,58.13
2022-12-03T04:52:17.079Z,58.19
2022-12-03T04:54:44.856Z,57.34
2022-12-03T04:57:13.760Z,58.28
2022-12-03T04:59:41.395Z,58.43
2022-12-03T05:02:09.004Z,58.52
2022-12-03T05:04:36.965Z,57.72
2022-12-03T05:07:04.533Z,57.44
2022-12-03T05:09:33.129Z,57.99
2022-12-03T05:12:01.118Z,58.46
2022-12-03T05:14:28.620Z,58.82
2022-12-03T05:16:56.256Z,59.31
2022-12-03T05:19:43.741Z,58.92
2022-12-03T05:22:11.231Z,58.89
2022-12-03T05:24:38.728Z,58.88
2022-12-03T05:27:06.275Z,58.67
2022-12-03T05:29:33.839Z,58.99
2022-12-03T05:32:01.321Z,58.37
2022-12-03T05:34:28.888Z,58.76
2022-12-03T05:36:56.434Z,58.91
2022-12-03T05:39:26.508Z,58.48
2022-12-03T05:42:12.882Z,58.95
2022-12-03T05:44:40.573Z,59.05
2022-12-03T05:47:10.287Z,58.68
2022-12-03T05:49:37.903Z,58.76
2022-12-03T05:52:05.639Z,58.66
2022-12-03T05:54:33.140Z,59.25
2022-12-03T05:57:00.644Z,58.90
2022-12-03T05:59:28.395Z,58.78
2022-12-03T06:01:56.455Z,59.39
2022-12-03T06:04:24.383Z,59.08
2022-12-03T06:06:52.556Z,58.82
2022-12-03T06:09:20.578Z,58.67
2022-12-03T06:11:53.625Z,59.09
2022-12-03T06:14:21.520Z,59.01
2022-12-03T06:16:49.047Z,59.04
2022-12-03T06:19:16.581Z,59.59
2022-12-03T06:21:44.057Z,59.22
2022-12-03T06:24:11.486Z,59.07
2022-12-03T06:26:40.007Z,59.17
2022-12-03T06:29:07.459Z,59.19
2022-12-03T06:31:35.068Z,59.23
2022-12-03T06:34:02.594Z,58.80
2022-12-03T06:36:30.198Z,58.41
2022-12-03T06:38:57.640Z,58.65
2022-12-03T06:41:25.078Z,58.06
2022-12-03T06:43:52.605Z,58.09
2022-12-03T06:46:20.237Z,58.12
2022-12-03T06:48:47.745Z,57.28
2022-12-03T06:51:15.303Z,57.43
2022-12-03T06:53:42.860Z,57.85
2022-12-03T06:56:10.309Z,58.25
2022-12-03T06:58:37.761Z,57.71
2022-12-03T07:01:05.490Z,57.19
2022-12-03T07:03:32.948Z,57.75
2022-12-03T07:06:00.456Z,57.89
2022-12-03T07:08:28.365Z,57.11
2022-12-03T07:10:56.010Z,56.52
2022-12-03T07:13:23.493Z,56.49
2022-12-03T07:15:52.574Z,56.74
2022-12-03T07:18:22.778Z,56.01
2022-12-03T07:20:50.334Z,56.26
2022-12-03T07:23:17.833Z,55.86
2022-12-03T07:25:45.331Z,56.17
2022-12-03T07:28:12.734Z,55.99
2022-12-03T07:30:40.210Z,56.28
2022-12-03T07:33:10.101Z,56.01
2022-12-03T07:35:37.510Z,55.93
2022-12-03T07:38:05.022Z,56.10
2022-12-03T07:40:32.446Z,55.67
2022-12-03T07:42:59.950Z,56.02
2022-12-03T07:45:27.423Z,56.02
2022-12-03T07:47:54.944Z,55.96
2022-12-03T07:50:22.519Z,55.51
2022-12-03T07:52:49.981Z,55.65
2022-12-03T07:55:17.493Z,55.64
2022-12-03T07:57:45.033Z,55.85
2022-12-03T08:00:13.077Z,56.15
2022-12-03T08:02:40.629Z,55.52
2022-12-03T08:05:08.311Z,55.85
2022-12-03T08:07:35.831Z,55.43
2022-12-03T08:10:05.283Z,55.33
2022-12-03T08:12:41.297Z,55.08
2022-12-03T08:15:16.305Z,55.72
2022-12-03T08:17:45.851Z,55.51
2022-12-03T08:20:16.201Z,55.87
2022-12-03T08:22:46.010Z,55.77
2022-12-03T08:25:24.984Z,55.53
2022-12-03T08:27:57.997Z,55.21
2022-12-03T08:30:25.620Z,55.57
2022-12-03T08:32:54.033Z,55.09
2022-12-03T08:35:25.200Z,55.89
2022-12-03T08:38:11.515Z,55.66
2022-12-03T08:40:45.742Z,55.29
2022-12-03T08:43:23.264Z,55.17
2022-12-03T08:45:55.899Z,55.42
2022-12-03T08:48:39.248Z,55.37
2022-12-03T08:51:27.763Z,55.18
2022-12-03T08:54:13.688Z,55.68
2022-12-03T08:56:41.741Z,55.10
2022-12-03T08:59:33.103Z,55.56
2022-12-03T09:02:00.728Z,55.11
2022-12-03T09:04:38.981Z,55.55
2022-12-03T09:07:06.698Z,55.12
2022-12-03T09:09:35.012Z,55.33
2022-12-03T09:12:04.241Z,55.63
2022-12-03T09:14:31.750Z,55.93
2022-12-03T09:16:59.284Z,55.50
2022-12-03T09:19:31.068Z,56.10
2022-12-03T09:21:58.799Z,55.34
2022-12-03T09:24:26.248Z,55.36
2022-12-03T09:26:53.732Z,56.08
2022-12-03T09:29:21.288Z,55.79
2022-12-03T09:31:48.875Z,55.05
2022-12-03T09:34:16.496Z,55.42
2022-12-03T09:36:44.045Z,55.29
2022-12-03T09:39:11.605Z,55.32
2022-12-03T09:41:39.305Z,55.98
2022-12-03T09:44:10.804Z,55.64
2022-12-03T09:46:44.016Z,55.60
2022-12-03T09:49:16.099Z,55.33
2022-12-03T09:51:45.477Z,55.44
2022-12-03T09:54:24.676Z,55.83
2022-12-03T09:56:54.015Z,55.50
2022-12-03T09:59:23.359Z,55.93
2022-12-03T10:01:52.017Z,55.66
2022-12-03T10:04:20.210Z,56.40
2022-12-03T10:06:47.966Z,56.28
2022-12-03T10:09:23.686Z,56.63
2022-12-03T10:11:51.285Z,56.90
2022-12-03T10:14:20.188Z,56.69
2022-12-03T10:16:48.341Z,56.56
2022-12-03T10:19:29.403Z,56.76
2022-12-03T10:21:59.959Z,56.50
2022-12-03T10:24:30.461Z,56.12
2022-12-03T10:27:00.398Z,56.62
2022-12-03T10:29:34.715Z,56.54
2022-12-03T10:32:04.260Z,56.61
2022-12-03T10:34:34.935Z,56.67
2022-12-03T10:37:10.171Z,56.62
2022-12-03T10:39:56.545Z,56.92
2022-12-03T10:42:26.773Z,56.54
2022-12-03T10:45:14.118Z,56.68
2022-12-03T10:47:43.311Z,56.63
2022-12-03T10:50:17.871Z,56.80
2022-12-03T10:52:46.773Z,56.60
2022-12-03T10:55:16.229Z,57.41
2022-12-03T10:57:46.174Z,57.60
2022-12-03T11:00:19.100Z,57.53
2022-12-03T11:02:54.904Z,57.32
2022-12-03T11:05:28.512Z,57.67
2022-12-03T11:07:57.103Z,57.21
2022-12-03T11:10:25.374Z,57.51
2022-12-03T11:13:30.478Z,58.18
2022-12-03T11:15:58.662Z,58.01
2022-12-03T11:18:38.062Z,58.23
2022-12-03T11:21:07.263Z,57.52
2022-12-03T11:23:46.819Z,58.64
2022-12-03T11:26:29.414Z,58.46
2022-12-03T11:28:58.643Z,58.88
2022-12-03T11:31:46.636Z,60.02
2022-12-03T11:34:17.283Z,59.66
2022-12-03T11:37:12.375Z,60.20
2022-12-03T11:39:52.745Z,60.65
2022-12-03T11:42:26.716Z,60.57
2022-12-03T11:45:06.561Z,61.14
2022-12-03T11:47:39.062Z,61.37
2022-12-03T11:50:39.060Z,61.97
2022-12-03T11:53:35.134Z,62.22
2022-12-03T11:56:13.488Z,61.51
2022-12-03T11:58:45.341Z,61.40
2022-12-03T12:01:14.657Z,62.34
2022-12-03T12:03:45.215Z,62.70
2022-12-03T12:06:15.530Z,63.57
2022-12-03T12:08:52.138Z,63.94
2022-12-03T12:11:25.678Z,63.67
2022-12-03T12:14:01.442Z,63.81
2022-12-03T12:16:52.433Z,63.78
2022-12-03T12:19:36.324Z,63.57
2022-12-03T12:22:17.022Z,63.55
2022-12-03T12:24:52.849Z,63.52
2022-12-03T12:27:45.171Z,63.90
2022-12-03T12:30:12.823Z,63.32
2022-12-03T12:32:47.301Z,64.36
2022-12-03T12:35:28.841Z,64.83
2022-12-03T12:38:10.900Z,64.36
2022-12-03T12:40:45.069Z,64.80
2022-12-03T12:43:33.020Z,65.17
2022-12-03T12:46:38.606Z,65.30
2022-12-03T12:48:59.419Z,65.20
2022-12-03T12:51:27.310Z,64.59
2022-12-03T12:53:54.869Z,65.24
2022-12-03T12:56:32.846Z,65.45
2022-12-03T12:59:32.845Z,65.61
2022-12-03T13:02:02.527Z,65.09
2022-12-03T13:04:32.332Z,64.69
2022-12-03T13:06:59.972Z,65.67
2022-12-03T13:09:27.435Z,65.16
2022-12-03T13:11:59.941Z,66.08
2022-12-03T13:14:45.572Z,66.70
2022-12-03T13:17:20.739Z,66.29
2022-12-03T13:19:53.910Z,66.71
2022-12-03T13:22:25.793Z,67.93
2022-12-03T13:24:56.252Z,67.65
2022-12-03T13:27:29.764Z,67.66
2022-12-03T13:30:01.747Z,67.77
2022-12-03T13:32:34.128Z,66.79
2022-12-03T13:35:13.296Z,67.40
2022-12-03T13:37:40.939Z,67.79
2022-12-03T13:40:27.467Z,68.26
2022-12-03T13:42:55.239Z,68.57
2022-12-03T13:45:24.899Z,68.43
2022-12-03T13:47:58.352Z,68.88
2022-12-03T13:50:36.651Z,68.96
2022-12-03T13:53:22.972Z,68.95
2022-12-03T13:56:16.528Z,69.97
2022-12-03T13:58:44.083Z,69.03
2022-12-03T14:01:11.615Z,69.26
2022-12-03T14:03:39.147Z,69.23
2022-12-03T14:06:07.142Z,69.41
2022-12-03T14:08:34.583Z,68.81
2022-12-03T14:11:02.686Z,70.15
2022-12-03T14:13:30.167Z,69.33
2022-12-03T14:15:57.673Z,69.38
2022-12-03T14:18:25.235Z,70.00
2022-12-03T14:20:52.711Z,69.58
2022-12-03T14:23:20.118Z,69.82
2022-12-03T14:25:47.650Z,69.28
2022-12-03T14:28:15.046Z,69.47
2022-12-03T14:30:42.513Z,69.82
2022-12-03T14:33:10.094Z,69.76
2022-12-03T14:35:37.507Z,69.11
2022-12-03T14:38:04.933Z,68.75
2022-12-03T14:40:32.422Z,69.06
2022-12-03T14:42:59.833Z,69.51
2022-12-03T14:45:30.058Z,69.24
2022-12-03T14:47:57.547Z,68.97
2022-12-03T14:50:26.296Z,69.08
2022-12-03T14:52:53.820Z,69.69
2022-12-03T14:55:21.343Z,69.51
2022-12-03T14:57:48.906Z,69.01
2022-12-03T15:00:16.982Z,68.71
2022-12-03T15:02:44.569Z,69.02
2022-12-03T15:05:12.035Z,69.52
2022-12-03T15:07:39.580Z,70.02
2022-12-03T15:10:08.235Z,70.01
2022-12-03T15:12:35.730Z,69.86
2022-12-03T15:15:03.498Z,69.67
2022-12-03T15:17:32.272Z,69.76
2022-12-03T15:20:00.175Z,69.64
2022-12-03T15:22:27.733Z,69.80
2022-12-03T15:24:55.176Z,69.76
2022-12-03T15:27:22.706Z,70.21
2022-12-03T15:29:50.113Z,70.17
2022-12-03T15:32:17.600Z,70.21
2022-12-03T15:34:45.133Z,70.10
2022-12-03T15:37:12.652Z,71.09
2022-12-03T15:39:45.090Z,70.77
2022-12-03T15:42:15.913Z,70.52
2022-12-03T15:44:43.457Z,70.33
2022-12-03T15:47:10.876Z,70.78
2022-12-03T15:49:38.396Z,70.37
2022-12-03T15:52:06.075Z,70.61
2022-12-03T15:54:33.907Z,70.71
2022-12-03T15:57:01.421Z,70.41
2022-12-03T15:59:28.892Z,69.93
2022-12-03T16:01:56.528Z,70.55
2022-12-03T16:04:24.020Z,69.85
2022-12-03T16:06:51.473Z,70.21
2022-12-03T16:09:23.754Z,69.80
2022-12-03T16:11:54.384Z,70.51
2022-12-03T16:14:21.983Z,69.97
2022-12-03T16:16:49.443Z,69.46
2022-12-03T16:19:16.878Z,69.49
2022-12-03T16:21:44.332Z,69.84
2022-12-03T16:24:12.032Z,69.23
2022-12-03T16:26:39.485Z,69.82
2022-12-03T16:29:07.110Z,70.51
2022-12-03T16:31:34.648Z,70.45
2022-12-03T16:34:02.204Z,70.12
2022-12-03T16:36:29.652Z,69.63
2022-12-03T16:38:58.170Z,69.84
2022-12-03T16:41:25.803Z,69.45
2022-12-03T16:43:53.295Z,69.17
2022-12-03T16:46:21.238Z,68.24
2022-12-03T16:48:48.871Z,68.26
2022-12-03T16:51:19.386Z,67.67
2022-12-03T16:53:47.312Z,68.00
2022-12-03T16:56:15.362Z,68.12
2022-12-03T16:58:43.070Z,67.40
2022-12-03T17:01:10.657Z,67.23
2022-12-03T17:03:38.326Z,66.74
2022-12-03T17:06:06.136Z,66.37
2022-12-03T17:08:33.762Z,66.41
2022-12-03T17:11:05.786Z,66.21
2022-12-03T17:13:33.280Z,65.86
2022-12-03T17:16:02.001Z,66.44
2022-12-03T17:18:29.590Z,66.03
2022-12-03T17:20:57.183Z,66.34
2022-12-03T17:23:24.742Z,66.05
2022-12-03T17:25:52.378Z,65.81
2022-12-03T17:28:21.667Z,65.27
2022-12-03T17:30:49.443Z,64.77
2022-12-03T17:33:17.079Z,65.68
2022-12-03T17:35:46.083Z,65.18
2022-12-03T17:38:13.599Z,64.53
2022-12-03T17:40:43.825Z,65.36
2022-12-03T17:43:11.390Z,64.77
2022-12-03T17:45:38.919Z,64.77
2022-12-03T17:48:18.449Z,64.58
2022-12-03T17:55:02.015Z,64.75
2022-12-03T17:58:27.792Z,64.99
2022-12-03T18:01:50.731Z,65.48
2022-12-03T18:04:49.090Z,65.43
2022-12-03T18:11:34.557Z,65.17
2022-12-03T18:14:16.992Z,64.87
2022-12-03T18:16:59.312Z,64.71
2022-12-03T18:19:35.614Z,65.29
2022-12-03T18:22:03.134Z,64.83
2022-12-03T18:24:30.701Z,65.13
2022-12-03T18:27:36.356Z,64.98
2022-12-03T18:30:04.630Z,65.31
2022-12-03T18:32:32.618Z,66.00
2022-12-03T18:35:00.247Z,65.74
2022-12-03T18:37:29.366Z,66.24
2022-12-03T18:39:58.121Z,66.74
2022-12-03T18:42:26.275Z,66.25
2022-12-03T18:44:56.104Z,66.78
2022-12-03T18:47:27.699Z,66.85
2022-12-03T18:49:56.052Z,66.96
2022-12-03T18:52:25.306Z,67.37
2022-12-03T18:54:55.503Z,67.38
2022-12-03T18:57:22.995Z,66.76
2022-12-03T18:59:50.585Z,66.22
2022-12-03T19:05:09.445Z,66.63
2022-12-03T19:07:37.155Z,66.55
2022-12-03T19:10:05.458Z,66.98
2022-12-03T19:12:33.470Z,67.06
2022-12-03T19:15:01.250Z,66.95
2022-12-03T19:17:28.909Z,67.22
2022-12-03T19:19:56.731Z,66.79
2022-12-03T19:22:24.678Z,66.61
2022-12-03T19:24:52.418Z,66.58
2022-12-03T19:27:20.194Z,66.53
2022-12-03T19:29:51.170Z,66.64
2022-12-03T19:32:18.741Z,66.54
2022-12-03T19:34:46.732Z,66.02
2022-12-03T19:37:14.487Z,65.77
2022-12-03T19:39:43.276Z,66.14
2022-12-03T19:42:10.824Z,65.88
2022-12-03T19:44:39.175Z,66.33
2022-12-03T19:47:06.691Z,66.27
2022-12-03T19:49:34.242Z,66.00
2022-12-03T19:52:01.739Z,66.21
2022-12-03T19:54:29.206Z,66.54
2022-12-03T19:56:56.802Z,66.34
2022-12-03T19:59:24.331Z,66.35
2022-12-03T20:01:51.965Z,66.43
2022-12-03T20:04:19.623Z,65.78
2022-12-03T20:06:47.648Z,66.51
2022-12-03T20:09:18.219Z,66.17
2022-12-03T20:12:05.876Z,66.26
2022-12-03T20:14:34.673Z,66.01
2022-12-03T20:17:02.154Z,66.23
2022-12-03T20:19:29.765Z,66.01
2022-12-03T20:22:02.285Z,66.51
2022-12-03T20:24:30.529Z,65.78
2022-12-03T20:26:58.016Z,65.20
2022-12-03T20:29:25.530Z,66.05
2022-12-03T20:31:53.603Z,65.34
2022-12-03T20:34:21.187Z,65.37
2022-12-03T20:36:48.738Z,65.46
2022-12-03T20:39:16.297Z,65.11
2022-12-03T20:41:43.833Z,65.25
2022-12-03T20:44:11.603Z,64.87
2022-12-03T20:46:39.667Z,65.58
2022-12-03T20:49:07.245Z,65.56
2022-12-03T20:51:35.074Z,65.39
2022-12-03T20:54:02.779Z,65.14
2022-12-03T20:56:36.669Z,64.80
2022-12-03T20:59:06.619Z,64.88
2022-12-03T21:01:36.416Z,64.58
2022-12-03T21:04:05.500Z,64.72
2022-12-03T21:06:35.895Z,64.94
2022-12-03T21:09:06.443Z,64.47
2022-12-03T21:11:36.069Z,64.50
2022-12-03T21:14:04.615Z,64.73
2022-12-03T21:17:06.126Z,64.42
2022-12-03T21:19:22.962Z,64.73
2022-12-03T21:21:50.532Z,64.33
2022-12-03T21:24:18.011Z,64.26
2022-12-03T21:26:45.771Z,64.12
2022-12-03T21:29:13.334Z,64.42
2022-12-03T21:31:40.996Z,64.60
2022-12-03T21:34:08.921Z,64.38
2022-12-03T21:36:36.545Z,64.30
2022-12-03T21:39:05.909Z,64.58
2022-12-03T21:41:35.220Z,64.22
2022-12-03T21:44:03.307Z,64.92
2022-12-03T21:47:10.775Z,64.46
2022-12-03T21:49:20.351Z,64.22
2022-12-03T21:51:47.996Z,64.55
2022-12-03T21:54:15.778Z,64.74
2022-12-03T21:56:43.499Z,64.88
2022-12-03T21:59:11.087Z,64.77
2022-12-03T22:01:42.752Z,64.94
2022-12-03T22:04:13.123Z,64.74
2022-12-03T22:06:40.590Z,65.19
2022-12-03T22:09:08.060Z,64.65
2022-12-03T22:11:35.599Z,64.82
2022-12-03T22:14:04.831Z,64.63
2022-12-03T22:16:32.557Z,64.31
2022-12-03T22:19:00.235Z,63.83
2022-12-03T22:21:27.893Z,64.15
2022-12-03T22:23:56.194Z,63.44
2022-12-03T22:26:23.753Z,64.40
2022-12-03T22:28:51.585Z,64.03
2022-12-03T22:31:19.234Z,64.36
2022-12-03T22:33:48.624Z,63.88
2022-12-03T22:36:21.056Z,63.71
2022-12-03T22:38:50.555Z,64.06
2022-12-03T22:41:18.666Z,63.83
2022-12-03T22:43:47.601Z,64.60
2022-12-03T22:46:16.291Z,63.87
2022-12-03T22:48:45.375Z,64.57
2022-12-03T22:51:17.489Z,63.97
2022-12-03T22:53:45.131Z,64.02
2022-12-03T22:56:13.136Z,63.84
2022-12-03T22:58:40.771Z,64.28
2022-12-03T23:01:08.800Z,64.02
2022-12-03T23:03:36.848Z,64.41
2022-12-03T23:06:11.597Z,64.77
2022-12-03T23:08:39.363Z,64.46
2022-12-03T23:11:07.900Z,63.96
2022-12-03T23:13:35.599Z,63.89
2022-12-03T23:16:04.050Z,64.08
2022-12-03T23:18:32.167Z,63.85
2022-12-03T23:21:00.638Z,64.18
2022-12-03T23:23:28.190Z,64.45
2022-12-03T23:26:07.347Z,64.83
2022-12-03T23:28:36.650Z,64.06
2022-12-03T23:31:06.245Z,64.26
2022-12-03T23:33:38.119Z,64.61
2022-12-03T23:36:07.196Z,64.36
2022-12-03T23:38:34.675Z,64.63
2022-12-03T23:41:11.357Z,64.56
2022-12-03T23:43:40.143Z,64.52
2022-12-03T23:46:10.594Z,64.63
2022-12-03T23:48:38.213Z,64.22
2022-12-03T23:51:13.898Z,64.65
2022-12-03T23:53:41.963Z,64.39
2022-12-03T23:56:15.183Z,64.83
2022-12-03T23:58:43.331Z,64.60
